<?xml version="1.0" encoding="UTF-8" standalone="no" ?>
<gpx xmlns="http://www.topografix.com/GPX/1/1" xmlns:xsi="http://www.w3.org/2001/XMLSchema-instance" xsi:schemaLocation="http://www.topografix.com/GPX/1/1 http://www.topografix.com/GPX/1/1/gpx.xsd" version="1.1" creator="VisuGPX - https://www.visugpx.com">
  <metadata>
    <name>Au depart de St Genest Malifaux</name>
    <desc><![CDATA[Reprise d'un parcours déjà existant sur utagawa !!!]]></desc>
  </metadata>
  <trk>
    <name><![CDATA[OpenLayers.Feature.Vector_26068]]></name>
    <trkseg>
      <trkpt lat="45.33928" lon="4.41793">
        <ele>958</ele>
      </trkpt>
      <trkpt lat="45.33954" lon="4.41846">
        <ele>958</ele>
      </trkpt>
      <trkpt lat="45.33977" lon="4.41919">
        <ele>967</ele>
      </trkpt>
      <trkpt lat="45.34005" lon="4.41975">
        <ele>968</ele>
      </trkpt>
      <trkpt lat="45.34005" lon="4.41975">
        <ele>968</ele>
      </trkpt>
      <trkpt lat="45.34022" lon="4.42019">
        <ele>968</ele>
      </trkpt>
      <trkpt lat="45.34052" lon="4.42027">
        <ele>974</ele>
      </trkpt>
      <trkpt lat="45.3406" lon="4.4208">
        <ele>961</ele>
        <time>2007-04-07T17:49:33Z</time>
      </trkpt>
      <trkpt lat="45.34135" lon="4.42235">
        <ele>967</ele>
        <time>2007-04-07T17:50:08Z</time>
      </trkpt>
      <trkpt lat="45.34268" lon="4.42388">
        <ele>975</ele>
        <time>2007-04-07T17:50:42Z</time>
      </trkpt>
      <trkpt lat="45.34287" lon="4.42435">
        <ele>977</ele>
        <time>2007-04-07T17:50:52Z</time>
      </trkpt>
      <trkpt lat="45.34303" lon="4.42518">
        <ele>981</ele>
        <time>2007-04-07T17:51:07Z</time>
      </trkpt>
      <trkpt lat="45.34302" lon="4.4259">
        <ele>984</ele>
        <time>2007-04-07T17:51:20Z</time>
      </trkpt>
      <trkpt lat="45.3429" lon="4.42655">
        <ele>987</ele>
        <time>2007-04-07T17:51:33Z</time>
      </trkpt>
      <trkpt lat="45.34275" lon="4.4273">
        <ele>990</ele>
        <time>2007-04-07T17:51:49Z</time>
      </trkpt>
      <trkpt lat="45.34278" lon="4.42777">
        <ele>991</ele>
        <time>2007-04-07T17:51:59Z</time>
      </trkpt>
      <trkpt lat="45.34303" lon="4.42833">
        <ele>989</ele>
        <time>2007-04-07T17:52:09Z</time>
      </trkpt>
      <trkpt lat="45.34332" lon="4.4289">
        <ele>987</ele>
        <time>2007-04-07T17:52:17Z</time>
      </trkpt>
      <trkpt lat="45.34337" lon="4.42963">
        <ele>984</ele>
        <time>2007-04-07T17:52:24Z</time>
      </trkpt>
      <trkpt lat="45.34253" lon="4.43163">
        <ele>978</ele>
        <time>2007-04-07T17:52:41Z</time>
      </trkpt>
      <trkpt lat="45.34162" lon="4.43177">
        <ele>971</ele>
        <time>2007-04-07T17:52:53Z</time>
      </trkpt>
      <trkpt lat="45.3411" lon="4.43228">
        <ele>967</ele>
        <time>2007-04-07T17:52:58Z</time>
      </trkpt>
      <trkpt lat="45.34083" lon="4.43408">
        <ele>958</ele>
        <time>2007-04-07T17:53:09Z</time>
      </trkpt>
      <trkpt lat="45.34123" lon="4.43745">
        <ele>960</ele>
        <time>2007-04-07T17:53:36Z</time>
      </trkpt>
      <trkpt lat="45.34145" lon="4.43778">
        <ele>962</ele>
        <time>2007-04-07T17:53:43Z</time>
      </trkpt>
      <trkpt lat="45.34182" lon="4.43793">
        <ele>964</ele>
        <time>2007-04-07T17:53:55Z</time>
      </trkpt>
      <trkpt lat="45.3426" lon="4.43858">
        <ele>971</ele>
        <time>2007-04-07T17:54:24Z</time>
      </trkpt>
      <trkpt lat="45.34312" lon="4.43928">
        <ele>975</ele>
        <time>2007-04-07T17:54:52Z</time>
      </trkpt>
      <trkpt lat="45.34358" lon="4.44023">
        <ele>980</ele>
        <time>2007-04-07T17:55:23Z</time>
      </trkpt>
      <trkpt lat="45.34287" lon="4.44077">
        <ele>984</ele>
        <time>2007-04-07T17:55:57Z</time>
      </trkpt>
      <trkpt lat="45.34255" lon="4.44118">
        <ele>990</ele>
        <time>2007-04-07T17:56:18Z</time>
      </trkpt>
      <trkpt lat="45.34182" lon="4.44188">
        <ele>990</ele>
        <time>2007-04-07T17:56:47Z</time>
      </trkpt>
      <trkpt lat="45.34145" lon="4.44213">
        <ele>996</ele>
        <time>2007-04-07T17:57:02Z</time>
      </trkpt>
      <trkpt lat="45.34103" lon="4.4423">
        <ele>996</ele>
        <time>2007-04-07T17:57:13Z</time>
      </trkpt>
      <trkpt lat="45.34077" lon="4.44245">
        <ele>999</ele>
        <time>2007-04-07T17:57:20Z</time>
      </trkpt>
      <trkpt lat="45.33945" lon="4.44332">
        <ele>1003</ele>
        <time>2007-04-07T17:58:04Z</time>
      </trkpt>
      <trkpt lat="45.33887" lon="4.4434">
        <ele>1000</ele>
        <time>2007-04-07T17:58:20Z</time>
      </trkpt>
      <trkpt lat="45.3382" lon="4.44377">
        <ele>1001</ele>
        <time>2007-04-07T17:58:46Z</time>
      </trkpt>
      <trkpt lat="45.3379" lon="4.44397">
        <ele>1004</ele>
      </trkpt>
      <trkpt lat="45.33608" lon="4.44513">
        <ele>1000</ele>
        <time>2007-04-07T15:28:55Z</time>
      </trkpt>
      <trkpt lat="45.33538" lon="4.44612">
        <ele>1000</ele>
        <time>2007-04-07T15:29:05Z</time>
      </trkpt>
      <trkpt lat="45.33495" lon="4.44713">
        <ele>1002</ele>
        <time>2007-04-07T15:29:16Z</time>
      </trkpt>
      <trkpt lat="45.33457" lon="4.44847">
        <ele>1004</ele>
        <time>2007-04-07T15:29:37Z</time>
      </trkpt>
      <trkpt lat="45.33405" lon="4.45015">
        <ele>998</ele>
        <time>2007-04-07T15:30:04Z</time>
      </trkpt>
      <trkpt lat="45.33398" lon="4.4508">
        <ele>994</ele>
        <time>2007-04-07T15:30:10Z</time>
      </trkpt>
      <trkpt lat="45.33427" lon="4.45155">
        <ele>989</ele>
        <time>2007-04-07T15:30:17Z</time>
      </trkpt>
      <trkpt lat="45.33423" lon="4.45368">
        <ele>986</ele>
        <time>2007-04-07T15:30:38Z</time>
      </trkpt>
      <trkpt lat="45.334" lon="4.45425">
        <ele>989</ele>
        <time>2007-04-07T15:30:53Z</time>
      </trkpt>
      <trkpt lat="45.33385" lon="4.45472">
        <ele>993</ele>
        <time>2007-04-07T15:31:11Z</time>
      </trkpt>
      <trkpt lat="45.33373" lon="4.45513">
        <ele>997</ele>
        <time>2007-04-07T15:31:29Z</time>
      </trkpt>
      <trkpt lat="45.33355" lon="4.45548">
        <ele>1001</ele>
        <time>2007-04-07T15:31:47Z</time>
      </trkpt>
      <trkpt lat="45.33342" lon="4.45588">
        <ele>1000</ele>
        <time>2007-04-07T15:32:01Z</time>
      </trkpt>
      <trkpt lat="45.33355" lon="4.45667">
        <ele>997</ele>
        <time>2007-04-07T15:32:14Z</time>
      </trkpt>
      <trkpt lat="45.33358" lon="4.45755">
        <ele>993</ele>
        <time>2007-04-07T15:32:25Z</time>
      </trkpt>
      <trkpt lat="45.33332" lon="4.45792">
        <ele>994</ele>
        <time>2007-04-07T15:32:34Z</time>
      </trkpt>
      <trkpt lat="45.333" lon="4.45805">
        <ele>997</ele>
        <time>2007-04-07T15:32:47Z</time>
      </trkpt>
      <trkpt lat="45.33273" lon="4.45825">
        <ele>1001</ele>
        <time>2007-04-07T15:33:06Z</time>
      </trkpt>
      <trkpt lat="45.33262" lon="4.45847">
        <ele>1000</ele>
        <time>2007-04-07T15:33:18Z</time>
      </trkpt>
      <trkpt lat="45.3325" lon="4.45905">
        <ele>1006</ele>
        <time>2007-04-07T15:33:42Z</time>
      </trkpt>
      <trkpt lat="45.33217" lon="4.45935">
        <ele>1007</ele>
        <time>2007-04-07T15:34:00Z</time>
      </trkpt>
      <trkpt lat="45.332" lon="4.45948">
        <ele>1007</ele>
        <time>2007-04-07T15:34:09Z</time>
      </trkpt>
      <trkpt lat="45.33187" lon="4.45977">
        <ele>1010</ele>
        <time>2007-04-07T15:34:25Z</time>
      </trkpt>
      <trkpt lat="45.33175" lon="4.45993">
        <ele>1010</ele>
        <time>2007-04-07T15:34:35Z</time>
      </trkpt>
      <trkpt lat="45.33177" lon="4.46017">
        <ele>1012</ele>
        <time>2007-04-07T15:34:48Z</time>
      </trkpt>
      <trkpt lat="45.33177" lon="4.46037">
        <ele>1016</ele>
        <time>2007-04-07T15:35:13Z</time>
      </trkpt>
      <trkpt lat="45.33182" lon="4.4606">
        <ele>1020</ele>
        <time>2007-04-07T15:35:31Z</time>
      </trkpt>
      <trkpt lat="45.33183" lon="4.46083">
        <ele>1023</ele>
        <time>2007-04-07T15:35:46Z</time>
      </trkpt>
      <trkpt lat="45.33183" lon="4.4612">
        <ele>1027</ele>
        <time>2007-04-07T15:36:09Z</time>
      </trkpt>
      <trkpt lat="45.33187" lon="4.4616">
        <ele>1031</ele>
        <time>2007-04-07T15:36:33Z</time>
      </trkpt>
      <trkpt lat="45.332" lon="4.46202">
        <ele>1034</ele>
        <time>2007-04-07T15:37:03Z</time>
      </trkpt>
      <trkpt lat="45.33222" lon="4.4624">
        <ele>1036</ele>
        <time>2007-04-07T15:37:24Z</time>
      </trkpt>
      <trkpt lat="45.33227" lon="4.46283">
        <ele>1032</ele>
        <time>2007-04-07T15:37:43Z</time>
      </trkpt>
      <trkpt lat="45.33235" lon="4.46305">
        <ele>1033</ele>
        <time>2007-04-07T15:37:53Z</time>
      </trkpt>
      <trkpt lat="45.33245" lon="4.46337">
        <ele>1028</ele>
        <time>2007-04-07T15:38:07Z</time>
      </trkpt>
      <trkpt lat="45.33262" lon="4.46367">
        <ele>1031</ele>
        <time>2007-04-07T15:38:21Z</time>
      </trkpt>
      <trkpt lat="45.33288" lon="4.4642">
        <ele>1041</ele>
        <time>2007-04-07T15:38:45Z</time>
      </trkpt>
      <trkpt lat="45.33305" lon="4.46448">
        <ele>1045</ele>
        <time>2007-04-07T15:38:58Z</time>
      </trkpt>
      <trkpt lat="45.33342" lon="4.46508">
        <ele>1056</ele>
        <time>2007-04-07T15:39:31Z</time>
      </trkpt>
      <trkpt lat="45.3336" lon="4.46538">
        <ele>1062</ele>
        <time>2007-04-07T15:39:50Z</time>
      </trkpt>
      <trkpt lat="45.33407" lon="4.46563">
        <ele>1064</ele>
        <time>2007-04-07T15:40:07Z</time>
      </trkpt>
      <trkpt lat="45.3355" lon="4.46558">
        <ele>1067</ele>
        <time>2007-04-07T15:40:31Z</time>
      </trkpt>
      <trkpt lat="45.33603" lon="4.46483">
        <ele>1067</ele>
        <time>2007-04-07T15:40:43Z</time>
      </trkpt>
      <trkpt lat="45.33663" lon="4.46425">
        <ele>1056</ele>
        <time>2007-04-07T15:40:54Z</time>
      </trkpt>
      <trkpt lat="45.33798" lon="4.46353">
        <ele>1056</ele>
        <time>2007-04-07T15:41:18Z</time>
      </trkpt>
      <trkpt lat="45.3382" lon="4.46387">
        <ele>1056</ele>
        <time>2007-04-07T15:41:27Z</time>
      </trkpt>
      <trkpt lat="45.33827" lon="4.46425">
        <ele>1060</ele>
        <time>2007-04-07T15:41:41Z</time>
      </trkpt>
      <trkpt lat="45.33828" lon="4.46457">
        <ele>1058</ele>
        <time>2007-04-07T15:41:53Z</time>
      </trkpt>
      <trkpt lat="45.33857" lon="4.46465">
        <ele>1055</ele>
        <time>2007-04-07T15:42:06Z</time>
      </trkpt>
      <trkpt lat="45.33873" lon="4.46483">
        <ele>1056</ele>
        <time>2007-04-07T15:42:16Z</time>
      </trkpt>
      <trkpt lat="45.3389" lon="4.46513">
        <ele>1053</ele>
        <time>2007-04-07T15:42:49Z</time>
      </trkpt>
      <trkpt lat="45.339" lon="4.4653">
        <ele>1058</ele>
        <time>2007-04-07T15:43:05Z</time>
      </trkpt>
      <trkpt lat="45.33927" lon="4.46573">
        <ele>1058</ele>
        <time>2007-04-07T15:43:39Z</time>
      </trkpt>
      <trkpt lat="45.33943" lon="4.4661">
        <ele>1055</ele>
        <time>2007-04-07T15:43:49Z</time>
      </trkpt>
      <trkpt lat="45.33948" lon="4.46648">
        <ele>1062</ele>
        <time>2007-04-07T15:44:04Z</time>
      </trkpt>
      <trkpt lat="45.3396" lon="4.46688">
        <ele>1066</ele>
        <time>2007-04-07T15:44:22Z</time>
      </trkpt>
      <trkpt lat="45.33963" lon="4.46732">
        <ele>1068</ele>
        <time>2007-04-07T15:44:41Z</time>
      </trkpt>
      <trkpt lat="45.33975" lon="4.46785">
        <ele>1066</ele>
        <time>2007-04-07T15:45:01Z</time>
      </trkpt>
      <trkpt lat="45.33988" lon="4.46863">
        <ele>1073</ele>
        <time>2007-04-07T15:45:31Z</time>
      </trkpt>
      <trkpt lat="45.34003" lon="4.4692">
        <ele>1079</ele>
        <time>2007-04-07T15:45:50Z</time>
      </trkpt>
      <trkpt lat="45.34013" lon="4.46965">
        <ele>1082</ele>
        <time>2007-04-07T15:46:06Z</time>
      </trkpt>
      <trkpt lat="45.34033" lon="4.47068">
        <ele>1080</ele>
        <time>2007-04-07T15:46:27Z</time>
      </trkpt>
      <trkpt lat="45.34043" lon="4.47112">
        <ele>1080</ele>
        <time>2007-04-07T15:46:36Z</time>
      </trkpt>
      <trkpt lat="45.34082" lon="4.4721">
        <ele>1079</ele>
        <time>2007-04-07T15:46:55Z</time>
      </trkpt>
      <trkpt lat="45.34103" lon="4.47255">
        <ele>1080</ele>
        <time>2007-04-07T15:47:04Z</time>
      </trkpt>
      <trkpt lat="45.34123" lon="4.47302">
        <ele>1079</ele>
        <time>2007-04-07T15:47:13Z</time>
      </trkpt>
      <trkpt lat="45.34145" lon="4.47373">
        <ele>1082</ele>
        <time>2007-04-07T15:47:25Z</time>
      </trkpt>
      <trkpt lat="45.34155" lon="4.47473">
        <ele>1076</ele>
        <time>2007-04-07T15:47:42Z</time>
      </trkpt>
      <trkpt lat="45.3415" lon="4.4751">
        <ele>1074</ele>
        <time>2007-04-07T15:47:51Z</time>
      </trkpt>
      <trkpt lat="45.34147" lon="4.47545">
        <ele>1074</ele>
        <time>2007-04-07T15:48:02Z</time>
      </trkpt>
      <trkpt lat="45.34135" lon="4.47588">
        <ele>1078</ele>
        <time>2007-04-07T15:48:15Z</time>
      </trkpt>
      <trkpt lat="45.3415" lon="4.47612">
        <ele>1082</ele>
        <time>2007-04-07T15:48:25Z</time>
      </trkpt>
      <trkpt lat="45.34177" lon="4.4762">
        <ele>1084</ele>
        <time>2007-04-07T15:48:36Z</time>
      </trkpt>
      <trkpt lat="45.34218" lon="4.47648">
        <ele>1093</ele>
        <time>2007-04-07T15:48:58Z</time>
      </trkpt>
      <trkpt lat="45.34238" lon="4.47668">
        <ele>1093</ele>
        <time>2007-04-07T15:49:08Z</time>
      </trkpt>
      <trkpt lat="45.34292" lon="4.47733">
        <ele>1107</ele>
        <time>2007-04-07T15:49:35Z</time>
      </trkpt>
      <trkpt lat="45.34318" lon="4.47758">
        <ele>1109</ele>
        <time>2007-04-07T15:49:46Z</time>
      </trkpt>
      <trkpt lat="45.34342" lon="4.47787">
        <ele>1109</ele>
        <time>2007-04-07T15:49:54Z</time>
      </trkpt>
      <trkpt lat="45.34365" lon="4.4784">
        <ele>1108</ele>
        <time>2007-04-07T15:50:06Z</time>
      </trkpt>
      <trkpt lat="45.34385" lon="4.4785">
        <ele>1103</ele>
        <time>2007-04-07T15:50:16Z</time>
      </trkpt>
      <trkpt lat="45.34402" lon="4.47888">
        <ele>1103</ele>
        <time>2007-04-07T15:50:36Z</time>
      </trkpt>
      <trkpt lat="45.34483" lon="4.48008">
        <ele>1103</ele>
        <time>2007-04-07T15:50:39Z</time>
      </trkpt>
      <trkpt lat="45.34505" lon="4.48018">
        <ele>1094</ele>
        <time>2007-04-07T15:50:45Z</time>
      </trkpt>
      <trkpt lat="45.34518" lon="4.48022">
        <ele>1099</ele>
        <time>2007-04-07T15:50:48Z</time>
      </trkpt>
      <trkpt lat="45.34515" lon="4.48047">
        <ele>1087</ele>
        <time>2007-04-07T15:50:59Z</time>
      </trkpt>
      <trkpt lat="45.34512" lon="4.48075">
        <ele>1086</ele>
        <time>2007-04-07T15:51:09Z</time>
      </trkpt>
      <trkpt lat="45.34518" lon="4.48103">
        <ele>1089</ele>
        <time>2007-04-07T15:51:18Z</time>
      </trkpt>
      <trkpt lat="45.34528" lon="4.48133">
        <ele>1093</ele>
        <time>2007-04-07T15:51:29Z</time>
      </trkpt>
      <trkpt lat="45.3455" lon="4.48143">
        <ele>1089</ele>
        <time>2007-04-07T15:51:36Z</time>
      </trkpt>
      <trkpt lat="45.34577" lon="4.48155">
        <ele>1088</ele>
        <time>2007-04-07T15:51:51Z</time>
      </trkpt>
      <trkpt lat="45.34598" lon="4.48147">
        <ele>1085</ele>
        <time>2007-04-07T15:52:01Z</time>
      </trkpt>
      <trkpt lat="45.34622" lon="4.48157">
        <ele>1083</ele>
        <time>2007-04-07T15:52:13Z</time>
      </trkpt>
      <trkpt lat="45.34638" lon="4.48152">
        <ele>1081</ele>
        <time>2007-04-07T15:52:21Z</time>
      </trkpt>
      <trkpt lat="45.3469" lon="4.4814">
        <ele>1079</ele>
        <time>2007-04-07T15:52:41Z</time>
      </trkpt>
      <trkpt lat="45.34722" lon="4.4814">
        <ele>1076</ele>
        <time>2007-04-07T15:52:51Z</time>
      </trkpt>
      <trkpt lat="45.34755" lon="4.48105">
        <ele>1070</ele>
        <time>2007-04-07T15:53:09Z</time>
      </trkpt>
      <trkpt lat="45.348" lon="4.48087">
        <ele>1070</ele>
        <time>2007-04-07T15:53:24Z</time>
      </trkpt>
      <trkpt lat="45.34833" lon="4.48085">
        <ele>1071</ele>
        <time>2007-04-07T15:53:35Z</time>
      </trkpt>
      <trkpt lat="45.3486" lon="4.48067">
        <ele>1070</ele>
        <time>2007-04-07T15:53:43Z</time>
      </trkpt>
      <trkpt lat="45.34905" lon="4.48027">
        <ele>1071</ele>
        <time>2007-04-07T15:53:55Z</time>
      </trkpt>
      <trkpt lat="45.34928" lon="4.48067">
        <ele>1074</ele>
        <time>2007-04-07T15:54:08Z</time>
      </trkpt>
      <trkpt lat="45.3493" lon="4.48105">
        <ele>1077</ele>
        <time>2007-04-07T15:54:20Z</time>
      </trkpt>
      <trkpt lat="45.34932" lon="4.48173">
        <ele>1082</ele>
        <time>2007-04-07T15:54:42Z</time>
      </trkpt>
      <trkpt lat="45.34925" lon="4.48233">
        <ele>1088</ele>
        <time>2007-04-07T15:55:02Z</time>
      </trkpt>
      <trkpt lat="45.34975" lon="4.4825">
        <ele>1090</ele>
        <time>2007-04-07T15:55:24Z</time>
      </trkpt>
      <trkpt lat="45.3505" lon="4.48292">
        <ele>1093</ele>
        <time>2007-04-07T15:55:47Z</time>
      </trkpt>
      <trkpt lat="45.35098" lon="4.48392">
        <ele>1103</ele>
        <time>2007-04-07T15:56:14Z</time>
      </trkpt>
      <trkpt lat="45.35107" lon="4.4843">
        <ele>1104</ele>
        <time>2007-04-07T15:56:24Z</time>
      </trkpt>
      <trkpt lat="45.35117" lon="4.48472">
        <ele>1106</ele>
        <time>2007-04-07T15:56:34Z</time>
      </trkpt>
      <trkpt lat="45.35122" lon="4.48552">
        <ele>1103</ele>
        <time>2007-04-07T15:56:50Z</time>
      </trkpt>
      <trkpt lat="45.351" lon="4.48743">
        <ele>1105</ele>
        <time>2007-04-07T15:57:14Z</time>
      </trkpt>
      <trkpt lat="45.35113" lon="4.48853">
        <ele>1104</ele>
        <time>2007-04-07T15:57:28Z</time>
      </trkpt>
      <trkpt lat="45.35112" lon="4.48907">
        <ele>1103</ele>
        <time>2007-04-07T15:57:37Z</time>
      </trkpt>
      <trkpt lat="45.35098" lon="4.48965">
        <ele>1103</ele>
        <time>2007-04-07T15:57:46Z</time>
      </trkpt>
      <trkpt lat="45.35075" lon="4.49015">
        <ele>1103</ele>
        <time>2007-04-07T15:57:52Z</time>
      </trkpt>
      <trkpt lat="45.35015" lon="4.491">
        <ele>1101</ele>
        <time>2007-04-07T15:58:06Z</time>
      </trkpt>
      <trkpt lat="45.34942" lon="4.49193">
        <ele>1099</ele>
        <time>2007-04-07T15:58:34Z</time>
      </trkpt>
      <trkpt lat="45.34908" lon="4.49228">
        <ele>1098</ele>
        <time>2007-04-07T15:58:49Z</time>
      </trkpt>
      <trkpt lat="45.34828" lon="4.49318">
        <ele>1104</ele>
        <time>2007-04-07T15:59:30Z</time>
      </trkpt>
      <trkpt lat="45.34782" lon="4.49378">
        <ele>1108</ele>
        <time>2007-04-07T15:59:58Z</time>
      </trkpt>
      <trkpt lat="45.34747" lon="4.4941">
        <ele>1111</ele>
        <time>2007-04-07T16:00:13Z</time>
      </trkpt>
      <trkpt lat="45.34707" lon="4.49447">
        <ele>1108</ele>
        <time>2007-04-07T16:00:32Z</time>
      </trkpt>
      <trkpt lat="45.34682" lon="4.49485">
        <ele>1112</ele>
        <time>2007-04-07T16:00:45Z</time>
      </trkpt>
      <trkpt lat="45.34668" lon="4.49527">
        <ele>1116</ele>
        <time>2007-04-07T16:00:57Z</time>
      </trkpt>
      <trkpt lat="45.34657" lon="4.49585">
        <ele>1115</ele>
        <time>2007-04-07T16:01:12Z</time>
      </trkpt>
      <trkpt lat="45.34648" lon="4.49627">
        <ele>1114</ele>
        <time>2007-04-07T16:01:22Z</time>
      </trkpt>
      <trkpt lat="45.34645" lon="4.4967">
        <ele>1117</ele>
        <time>2007-04-07T16:01:34Z</time>
      </trkpt>
      <trkpt lat="45.34642" lon="4.49703">
        <ele>1119</ele>
        <time>2007-04-07T16:01:42Z</time>
      </trkpt>
      <trkpt lat="45.34637" lon="4.49797">
        <ele>1119</ele>
        <time>2007-04-07T16:02:09Z</time>
      </trkpt>
      <trkpt lat="45.34622" lon="4.49842">
        <ele>1121</ele>
        <time>2007-04-07T16:02:20Z</time>
      </trkpt>
      <trkpt lat="45.34618" lon="4.49883">
        <ele>1120</ele>
        <time>2007-04-07T16:02:32Z</time>
      </trkpt>
      <trkpt lat="45.34613" lon="4.49913">
        <ele>1120</ele>
        <time>2007-04-07T16:02:40Z</time>
      </trkpt>
      <trkpt lat="45.34578" lon="4.50063">
        <ele>1124</ele>
        <time>2007-04-07T16:03:17Z</time>
      </trkpt>
      <trkpt lat="45.34557" lon="4.50123">
        <ele>1128</ele>
        <time>2007-04-07T16:03:32Z</time>
      </trkpt>
      <trkpt lat="45.34543" lon="4.50163">
        <ele>1133</ele>
        <time>2007-04-07T16:03:43Z</time>
      </trkpt>
      <trkpt lat="45.3455" lon="4.50207">
        <ele>1136</ele>
        <time>2007-04-07T16:03:53Z</time>
      </trkpt>
      <trkpt lat="45.3457" lon="4.50262">
        <ele>1138</ele>
        <time>2007-04-07T16:04:07Z</time>
      </trkpt>
      <trkpt lat="45.34597" lon="4.50267">
        <ele>1139</ele>
        <time>2007-04-07T16:04:16Z</time>
      </trkpt>
      <trkpt lat="45.34657" lon="4.5021">
        <ele>1136</ele>
        <time>2007-04-07T16:04:34Z</time>
      </trkpt>
      <trkpt lat="45.34687" lon="4.50143">
        <ele>1136</ele>
        <time>2007-04-07T16:04:47Z</time>
      </trkpt>
      <trkpt lat="45.34725" lon="4.50095">
        <ele>1135</ele>
        <time>2007-04-07T16:04:57Z</time>
      </trkpt>
      <trkpt lat="45.34968" lon="4.4992">
        <ele>1134</ele>
        <time>2007-04-07T16:05:41Z</time>
      </trkpt>
      <trkpt lat="45.3503" lon="4.49857">
        <ele>1134</ele>
        <time>2007-04-07T16:05:56Z</time>
      </trkpt>
      <trkpt lat="45.35095" lon="4.49838">
        <ele>1135</ele>
        <time>2007-04-07T16:06:07Z</time>
      </trkpt>
      <trkpt lat="45.35127" lon="4.49852">
        <ele>1134</ele>
        <time>2007-04-07T16:06:13Z</time>
      </trkpt>
      <trkpt lat="45.35153" lon="4.49928">
        <ele>1133</ele>
        <time>2007-04-07T16:06:23Z</time>
      </trkpt>
      <trkpt lat="45.35158" lon="4.5004">
        <ele>1134</ele>
        <time>2007-04-07T16:06:35Z</time>
      </trkpt>
      <trkpt lat="45.35145" lon="4.5023">
        <ele>1133</ele>
        <time>2007-04-07T16:06:55Z</time>
      </trkpt>
      <trkpt lat="45.35122" lon="4.50292">
        <ele>1132</ele>
        <time>2007-04-07T16:07:01Z</time>
      </trkpt>
      <trkpt lat="45.35128" lon="4.50348">
        <ele>1132</ele>
        <time>2007-04-07T16:07:07Z</time>
      </trkpt>
      <trkpt lat="45.35162" lon="4.50417">
        <ele>1133</ele>
        <time>2007-04-07T16:07:16Z</time>
      </trkpt>
      <trkpt lat="45.35167" lon="4.50483">
        <ele>1132</ele>
        <time>2007-04-07T16:07:26Z</time>
      </trkpt>
      <trkpt lat="45.3515" lon="4.50535">
        <ele>1131</ele>
        <time>2007-04-07T16:07:37Z</time>
      </trkpt>
      <trkpt lat="45.3511" lon="4.50643">
        <ele>1128</ele>
        <time>2007-04-07T16:08:02Z</time>
      </trkpt>
      <trkpt lat="45.3509" lon="4.50697">
        <ele>1133</ele>
        <time>2007-04-07T16:08:12Z</time>
      </trkpt>
      <trkpt lat="45.35085" lon="4.50735">
        <ele>1132</ele>
        <time>2007-04-07T16:08:44Z</time>
      </trkpt>
      <trkpt lat="45.3511" lon="4.5083">
        <ele>1136</ele>
        <time>2007-04-07T16:09:17Z</time>
      </trkpt>
      <trkpt lat="45.3511" lon="4.50878">
        <ele>1139</ele>
        <time>2007-04-07T16:09:30Z</time>
      </trkpt>
      <trkpt lat="45.35102" lon="4.5092">
        <ele>1138</ele>
        <time>2007-04-07T16:09:41Z</time>
      </trkpt>
      <trkpt lat="45.35072" lon="4.50992">
        <ele>1143</ele>
        <time>2007-04-07T16:10:02Z</time>
      </trkpt>
      <trkpt lat="45.3505" lon="4.51028">
        <ele>1146</ele>
        <time>2007-04-07T16:10:15Z</time>
      </trkpt>
      <trkpt lat="45.35057" lon="4.51073">
        <ele>1150</ele>
        <time>2007-04-07T16:10:30Z</time>
      </trkpt>
      <trkpt lat="45.3508" lon="4.51117">
        <ele>1163</ele>
        <time>2007-04-07T16:10:47Z</time>
      </trkpt>
      <trkpt lat="45.35088" lon="4.51152">
        <ele>1156</ele>
        <time>2007-04-07T16:10:59Z</time>
      </trkpt>
      <trkpt lat="45.35092" lon="4.51188">
        <ele>1156</ele>
        <time>2007-04-07T16:11:14Z</time>
      </trkpt>
      <trkpt lat="45.35092" lon="4.51213">
        <ele>1154</ele>
        <time>2007-04-07T16:11:24Z</time>
      </trkpt>
      <trkpt lat="45.35085" lon="4.51243">
        <ele>1159</ele>
        <time>2007-04-07T16:12:00Z</time>
      </trkpt>
      <trkpt lat="45.35075" lon="4.51267">
        <ele>1164</ele>
        <time>2007-04-07T16:12:27Z</time>
      </trkpt>
      <trkpt lat="45.35043" lon="4.51285">
        <ele>1170</ele>
        <time>2007-04-07T16:12:53Z</time>
      </trkpt>
      <trkpt lat="45.35015" lon="4.51308">
        <ele>1178</ele>
        <time>2007-04-07T16:13:29Z</time>
      </trkpt>
      <trkpt lat="45.35002" lon="4.51327">
        <ele>1177</ele>
        <time>2007-04-07T16:13:43Z</time>
      </trkpt>
      <trkpt lat="45.34983" lon="4.51342">
        <ele>1179</ele>
        <time>2007-04-07T16:13:58Z</time>
      </trkpt>
      <trkpt lat="45.34952" lon="4.51362">
        <ele>1182</ele>
        <time>2007-04-07T16:14:16Z</time>
      </trkpt>
      <trkpt lat="45.34932" lon="4.51395">
        <ele>1191</ele>
        <time>2007-04-07T16:14:36Z</time>
      </trkpt>
      <trkpt lat="45.34927" lon="4.5149">
        <ele>1177</ele>
        <time>2007-04-07T16:15:13Z</time>
      </trkpt>
      <trkpt lat="45.34925" lon="4.51515">
        <ele>1182</ele>
        <time>2007-04-07T16:15:28Z</time>
      </trkpt>
      <trkpt lat="45.34903" lon="4.51507">
        <ele>1184</ele>
        <time>2007-04-07T16:16:17Z</time>
      </trkpt>
      <trkpt lat="45.34875" lon="4.51467">
        <ele>1187</ele>
        <time>2007-04-07T16:16:42Z</time>
      </trkpt>
      <trkpt lat="45.34852" lon="4.51448">
        <ele>1185</ele>
        <time>2007-04-07T16:17:09Z</time>
      </trkpt>
      <trkpt lat="45.34837" lon="4.51418">
        <ele>1189</ele>
        <time>2007-04-07T16:17:42Z</time>
      </trkpt>
      <trkpt lat="45.34815" lon="4.51373">
        <ele>1190</ele>
        <time>2007-04-07T16:18:23Z</time>
      </trkpt>
      <trkpt lat="45.34737" lon="4.51287">
        <ele>1180</ele>
        <time>2007-04-07T16:18:59Z</time>
      </trkpt>
      <trkpt lat="45.34703" lon="4.51253">
        <ele>1180</ele>
        <time>2007-04-07T16:19:11Z</time>
      </trkpt>
      <trkpt lat="45.3469" lon="4.51207">
        <ele>1180</ele>
        <time>2007-04-07T16:19:19Z</time>
      </trkpt>
      <trkpt lat="45.34687" lon="4.51157">
        <ele>1180</ele>
        <time>2007-04-07T16:19:30Z</time>
      </trkpt>
      <trkpt lat="45.34693" lon="4.51117">
        <ele>1178</ele>
        <time>2007-04-07T16:19:38Z</time>
      </trkpt>
      <trkpt lat="45.34708" lon="4.51095">
        <ele>1179</ele>
        <time>2007-04-07T16:19:46Z</time>
      </trkpt>
      <trkpt lat="45.3471" lon="4.51065">
        <ele>1179</ele>
        <time>2007-04-07T16:19:56Z</time>
      </trkpt>
      <trkpt lat="45.34713" lon="4.51028">
        <ele>1179</ele>
        <time>2007-04-07T16:20:08Z</time>
      </trkpt>
      <trkpt lat="45.34715" lon="4.50972">
        <ele>1179</ele>
        <time>2007-04-07T16:20:27Z</time>
      </trkpt>
      <trkpt lat="45.34702" lon="4.50908">
        <ele>1184</ele>
        <time>2007-04-07T16:20:48Z</time>
      </trkpt>
      <trkpt lat="45.34693" lon="4.50878">
        <ele>1183</ele>
        <time>2007-04-07T16:20:57Z</time>
      </trkpt>
      <trkpt lat="45.34683" lon="4.50812">
        <ele>1181</ele>
        <time>2007-04-07T16:21:17Z</time>
      </trkpt>
      <trkpt lat="45.34677" lon="4.50785">
        <ele>1170</ele>
        <time>2007-04-07T16:21:25Z</time>
      </trkpt>
      <trkpt lat="45.34665" lon="4.50723">
        <ele>1164</ele>
        <time>2007-04-07T16:21:44Z</time>
      </trkpt>
      <trkpt lat="45.34658" lon="4.50697">
        <ele>1175</ele>
        <time>2007-04-07T16:21:52Z</time>
      </trkpt>
      <trkpt lat="45.34638" lon="4.50672">
        <ele>1184</ele>
        <time>2007-04-07T16:22:05Z</time>
      </trkpt>
      <trkpt lat="45.34592" lon="4.50672">
        <ele>1185</ele>
        <time>2007-04-07T16:22:26Z</time>
      </trkpt>
      <trkpt lat="45.34532" lon="4.50685">
        <ele>1177</ele>
        <time>2007-04-07T16:22:51Z</time>
      </trkpt>
      <trkpt lat="45.34495" lon="4.50692">
        <ele>1174</ele>
        <time>2007-04-07T16:23:01Z</time>
      </trkpt>
      <trkpt lat="45.34463" lon="4.50713">
        <ele>1175</ele>
        <time>2007-04-07T16:23:10Z</time>
      </trkpt>
      <trkpt lat="45.34425" lon="4.50713">
        <ele>1172</ele>
        <time>2007-04-07T16:23:21Z</time>
      </trkpt>
      <trkpt lat="45.34405" lon="4.50727">
        <ele>1181</ele>
        <time>2007-04-07T16:23:32Z</time>
      </trkpt>
      <trkpt lat="45.34378" lon="4.50735">
        <ele>1189</ele>
        <time>2007-04-07T16:23:46Z</time>
      </trkpt>
      <trkpt lat="45.3435" lon="4.50735">
        <ele>1201</ele>
        <time>2007-04-07T16:24:08Z</time>
      </trkpt>
      <trkpt lat="45.34327" lon="4.50732">
        <ele>1202</ele>
        <time>2007-04-07T16:24:28Z</time>
      </trkpt>
      <trkpt lat="45.34283" lon="4.50738">
        <ele>1213</ele>
        <time>2007-04-07T16:24:58Z</time>
      </trkpt>
      <trkpt lat="45.34265" lon="4.50742">
        <ele>1218</ele>
        <time>2007-04-07T16:25:13Z</time>
      </trkpt>
      <trkpt lat="45.34228" lon="4.50737">
        <ele>1222</ele>
        <time>2007-04-07T16:26:00Z</time>
      </trkpt>
      <trkpt lat="45.3421" lon="4.50733">
        <ele>1227</ele>
        <time>2007-04-07T16:26:32Z</time>
      </trkpt>
      <trkpt lat="45.34167" lon="4.50712">
        <ele>1228</ele>
        <time>2007-04-07T16:27:08Z</time>
      </trkpt>
      <trkpt lat="45.34147" lon="4.50698">
        <ele>1225</ele>
        <time>2007-04-07T16:27:22Z</time>
      </trkpt>
      <trkpt lat="45.34118" lon="4.5066">
        <ele>1221</ele>
        <time>2007-04-07T16:27:39Z</time>
      </trkpt>
      <trkpt lat="45.34098" lon="4.50635">
        <ele>1216</ele>
        <time>2007-04-07T16:27:51Z</time>
      </trkpt>
      <trkpt lat="45.34085" lon="4.50605">
        <ele>1215</ele>
        <time>2007-04-07T16:28:03Z</time>
      </trkpt>
      <trkpt lat="45.34055" lon="4.50568">
        <ele>1214</ele>
        <time>2007-04-07T16:28:20Z</time>
      </trkpt>
      <trkpt lat="45.34038" lon="4.50545">
        <ele>1217</ele>
        <time>2007-04-07T16:28:32Z</time>
      </trkpt>
      <trkpt lat="45.34033" lon="4.5052">
        <ele>1220</ele>
        <time>2007-04-07T16:28:45Z</time>
      </trkpt>
      <trkpt lat="45.34032" lon="4.50483">
        <ele>1222</ele>
        <time>2007-04-07T16:28:59Z</time>
      </trkpt>
      <trkpt lat="45.34025" lon="4.50447">
        <ele>1218</ele>
        <time>2007-04-07T16:29:13Z</time>
      </trkpt>
      <trkpt lat="45.34033" lon="4.50412">
        <ele>1216</ele>
        <time>2007-04-07T16:29:23Z</time>
      </trkpt>
      <trkpt lat="45.34035" lon="4.50372">
        <ele>1217</ele>
        <time>2007-04-07T16:29:30Z</time>
      </trkpt>
      <trkpt lat="45.34022" lon="4.50253">
        <ele>1218</ele>
        <time>2007-04-07T16:29:51Z</time>
      </trkpt>
      <trkpt lat="45.33955" lon="4.50142">
        <ele>1224</ele>
        <time>2007-04-07T16:30:17Z</time>
      </trkpt>
      <trkpt lat="45.33865" lon="4.50033">
        <ele>1223</ele>
        <time>2007-04-07T16:30:49Z</time>
      </trkpt>
      <trkpt lat="45.33837" lon="4.49968">
        <ele>1227</ele>
        <time>2007-04-07T16:31:08Z</time>
      </trkpt>
      <trkpt lat="45.33805" lon="4.49913">
        <ele>1229</ele>
        <time>2007-04-07T16:31:32Z</time>
      </trkpt>
      <trkpt lat="45.33775" lon="4.49877">
        <ele>1245</ele>
        <time>2007-04-07T16:31:55Z</time>
      </trkpt>
      <trkpt lat="45.33745" lon="4.49845">
        <ele>1243</ele>
        <time>2007-04-07T16:32:17Z</time>
      </trkpt>
      <trkpt lat="45.33733" lon="4.49825">
        <ele>1235</ele>
        <time>2007-04-07T16:32:27Z</time>
      </trkpt>
      <trkpt lat="45.3373" lon="4.49772">
        <ele>1233</ele>
        <time>2007-04-07T16:32:42Z</time>
      </trkpt>
      <trkpt lat="45.3372" lon="4.49723">
        <ele>1234</ele>
        <time>2007-04-07T16:32:54Z</time>
      </trkpt>
      <trkpt lat="45.33685" lon="4.49682">
        <ele>1238</ele>
        <time>2007-04-07T16:33:09Z</time>
      </trkpt>
      <trkpt lat="45.33642" lon="4.49662">
        <ele>1246</ele>
        <time>2007-04-07T16:33:24Z</time>
      </trkpt>
      <trkpt lat="45.33595" lon="4.49655">
        <ele>1243</ele>
        <time>2007-04-07T16:33:38Z</time>
      </trkpt>
      <trkpt lat="45.33565" lon="4.49638">
        <ele>1242</ele>
        <time>2007-04-07T16:33:46Z</time>
      </trkpt>
      <trkpt lat="45.3353" lon="4.49603">
        <ele>1237</ele>
        <time>2007-04-07T16:33:58Z</time>
      </trkpt>
      <trkpt lat="45.33507" lon="4.49598">
        <ele>1224</ele>
        <time>2007-04-07T16:34:03Z</time>
      </trkpt>
      <trkpt lat="45.33488" lon="4.49592">
        <ele>1226</ele>
        <time>2007-04-07T16:34:10Z</time>
      </trkpt>
      <trkpt lat="45.3347" lon="4.49562">
        <ele>1230</ele>
        <time>2007-04-07T16:34:19Z</time>
      </trkpt>
      <trkpt lat="45.33445" lon="4.4954">
        <ele>1218</ele>
        <time>2007-04-07T16:34:27Z</time>
      </trkpt>
      <trkpt lat="45.33447" lon="4.49507">
        <ele>1223</ele>
        <time>2007-04-07T16:34:36Z</time>
      </trkpt>
      <trkpt lat="45.33438" lon="4.49467">
        <ele>1224</ele>
        <time>2007-04-07T16:34:43Z</time>
      </trkpt>
      <trkpt lat="45.33418" lon="4.49427">
        <ele>1223</ele>
        <time>2007-04-07T16:34:51Z</time>
      </trkpt>
      <trkpt lat="45.33397" lon="4.49393">
        <ele>1224</ele>
        <time>2007-04-07T16:35:00Z</time>
      </trkpt>
      <trkpt lat="45.33372" lon="4.49347">
        <ele>1222</ele>
        <time>2007-04-07T16:35:11Z</time>
      </trkpt>
      <trkpt lat="45.33345" lon="4.49313">
        <ele>1227</ele>
        <time>2007-04-07T16:35:20Z</time>
      </trkpt>
      <trkpt lat="45.33322" lon="4.49257">
        <ele>1227</ele>
        <time>2007-04-07T16:35:28Z</time>
      </trkpt>
      <trkpt lat="45.33317" lon="4.4922">
        <ele>1227</ele>
        <time>2007-04-07T16:35:33Z</time>
      </trkpt>
      <trkpt lat="45.3331" lon="4.49167">
        <ele>1228</ele>
        <time>2007-04-07T16:35:40Z</time>
      </trkpt>
      <trkpt lat="45.33302" lon="4.4911">
        <ele>1230</ele>
        <time>2007-04-07T16:35:50Z</time>
      </trkpt>
      <trkpt lat="45.33255" lon="4.49047">
        <ele>1228</ele>
        <time>2007-04-07T16:36:04Z</time>
      </trkpt>
      <trkpt lat="45.33197" lon="4.49007">
        <ele>1225</ele>
        <time>2007-04-07T16:36:15Z</time>
      </trkpt>
      <trkpt lat="45.32995" lon="4.48987">
        <ele>1202</ele>
        <time>2007-04-07T16:36:47Z</time>
      </trkpt>
      <trkpt lat="45.32947" lon="4.4897">
        <ele>1205</ele>
        <time>2007-04-07T16:36:52Z</time>
      </trkpt>
      <trkpt lat="45.32898" lon="4.48965">
        <ele>1206</ele>
        <time>2007-04-07T16:37:05Z</time>
      </trkpt>
      <trkpt lat="45.32855" lon="4.48882">
        <ele>1206</ele>
        <time>2007-04-07T16:37:16Z</time>
      </trkpt>
      <trkpt lat="45.32823" lon="4.48832">
        <ele>1206</ele>
        <time>2007-04-07T16:37:22Z</time>
      </trkpt>
      <trkpt lat="45.32817" lon="4.48785">
        <ele>1206</ele>
        <time>2007-04-07T16:37:28Z</time>
      </trkpt>
      <trkpt lat="45.32807" lon="4.48723">
        <ele>1204</ele>
        <time>2007-04-07T16:37:34Z</time>
      </trkpt>
      <trkpt lat="45.32783" lon="4.48595">
        <ele>1196</ele>
        <time>2007-04-07T16:37:46Z</time>
      </trkpt>
      <trkpt lat="45.32785" lon="4.4852">
        <ele>1192</ele>
        <time>2007-04-07T16:37:53Z</time>
      </trkpt>
      <trkpt lat="45.32795" lon="4.48415">
        <ele>1189</ele>
        <time>2007-04-07T16:38:07Z</time>
      </trkpt>
      <trkpt lat="45.32788" lon="4.48303">
        <ele>1181</ele>
        <time>2007-04-07T16:38:10Z</time>
      </trkpt>
      <trkpt lat="45.32785" lon="4.48253">
        <ele>1181</ele>
        <time>2007-04-07T16:38:14Z</time>
      </trkpt>
      <trkpt lat="45.32695" lon="4.48153">
        <ele>1144</ele>
        <time>2007-04-07T16:38:27Z</time>
      </trkpt>
      <trkpt lat="45.32665" lon="4.48135">
        <ele>1143</ele>
        <time>2007-04-07T16:38:39Z</time>
      </trkpt>
      <trkpt lat="45.32608" lon="4.48147">
        <ele>1140</ele>
        <time>2007-04-07T16:38:49Z</time>
      </trkpt>
      <trkpt lat="45.32573" lon="4.48163">
        <ele>1140</ele>
        <time>2007-04-07T16:38:56Z</time>
      </trkpt>
      <trkpt lat="45.32495" lon="4.48142">
        <ele>1142</ele>
        <time>2007-04-07T16:39:24Z</time>
      </trkpt>
      <trkpt lat="45.32463" lon="4.48103">
        <ele>1146</ele>
        <time>2007-04-07T16:39:46Z</time>
      </trkpt>
      <trkpt lat="45.3246" lon="4.48078">
        <ele>1147</ele>
        <time>2007-04-07T16:39:56Z</time>
      </trkpt>
      <trkpt lat="45.32458" lon="4.48052">
        <ele>1153</ele>
        <time>2007-04-07T16:40:08Z</time>
      </trkpt>
      <trkpt lat="45.32438" lon="4.48007">
        <ele>1157</ele>
        <time>2007-04-07T16:40:28Z</time>
      </trkpt>
      <trkpt lat="45.32428" lon="4.4798">
        <ele>1161</ele>
        <time>2007-04-07T16:40:39Z</time>
      </trkpt>
      <trkpt lat="45.32417" lon="4.47945">
        <ele>1158</ele>
        <time>2007-04-07T16:40:49Z</time>
      </trkpt>
      <trkpt lat="45.32402" lon="4.47913">
        <ele>1159</ele>
        <time>2007-04-07T16:40:59Z</time>
      </trkpt>
      <trkpt lat="45.3238" lon="4.47885">
        <ele>1155</ele>
        <time>2007-04-07T16:41:14Z</time>
      </trkpt>
      <trkpt lat="45.32358" lon="4.47868">
        <ele>1158</ele>
        <time>2007-04-07T16:41:24Z</time>
      </trkpt>
      <trkpt lat="45.32338" lon="4.47845">
        <ele>1160</ele>
        <time>2007-04-07T16:41:36Z</time>
      </trkpt>
      <trkpt lat="45.32322" lon="4.47837">
        <ele>1165</ele>
        <time>2007-04-07T16:41:44Z</time>
      </trkpt>
      <trkpt lat="45.32303" lon="4.47818">
        <ele>1161</ele>
        <time>2007-04-07T16:41:55Z</time>
      </trkpt>
      <trkpt lat="45.32277" lon="4.47805">
        <ele>1159</ele>
        <time>2007-04-07T16:42:08Z</time>
      </trkpt>
      <trkpt lat="45.32245" lon="4.47783">
        <ele>1161</ele>
        <time>2007-04-07T16:42:26Z</time>
      </trkpt>
      <trkpt lat="45.32208" lon="4.47755">
        <ele>1159</ele>
        <time>2007-04-07T16:42:48Z</time>
      </trkpt>
      <trkpt lat="45.32185" lon="4.47745">
        <ele>1156</ele>
        <time>2007-04-07T16:42:59Z</time>
      </trkpt>
      <trkpt lat="45.32165" lon="4.4773">
        <ele>1157</ele>
        <time>2007-04-07T16:43:11Z</time>
      </trkpt>
      <trkpt lat="45.32147" lon="4.47715">
        <ele>1159</ele>
        <time>2007-04-07T16:43:23Z</time>
      </trkpt>
      <trkpt lat="45.32137" lon="4.47697">
        <ele>1162</ele>
        <time>2007-04-07T16:43:31Z</time>
      </trkpt>
      <trkpt lat="45.32113" lon="4.47675">
        <ele>1162</ele>
        <time>2007-04-07T16:43:40Z</time>
      </trkpt>
      <trkpt lat="45.32105" lon="4.47632">
        <ele>1161</ele>
        <time>2007-04-07T16:43:48Z</time>
      </trkpt>
      <trkpt lat="45.32082" lon="4.47552">
        <ele>1162</ele>
        <time>2007-04-07T16:43:59Z</time>
      </trkpt>
      <trkpt lat="45.3205" lon="4.47502">
        <ele>1168</ele>
        <time>2007-04-07T16:44:07Z</time>
      </trkpt>
      <trkpt lat="45.32008" lon="4.47467">
        <ele>1169</ele>
        <time>2007-04-07T16:44:16Z</time>
      </trkpt>
      <trkpt lat="45.31988" lon="4.4736">
        <ele>1167</ele>
        <time>2007-04-07T16:44:29Z</time>
      </trkpt>
      <trkpt lat="45.31977" lon="4.47293">
        <ele>1168</ele>
        <time>2007-04-07T16:44:36Z</time>
      </trkpt>
      <trkpt lat="45.31942" lon="4.47252">
        <ele>1170</ele>
        <time>2007-04-07T16:44:46Z</time>
      </trkpt>
      <trkpt lat="45.3189" lon="4.47197">
        <ele>1171</ele>
        <time>2007-04-07T16:44:59Z</time>
      </trkpt>
      <trkpt lat="45.31833" lon="4.471">
        <ele>1169</ele>
        <time>2007-04-07T16:45:50Z</time>
      </trkpt>
      <trkpt lat="45.31668" lon="4.46713">
        <ele>1164</ele>
        <time>2007-04-07T16:46:02Z</time>
      </trkpt>
      <trkpt lat="45.31652" lon="4.46642">
        <ele>1155</ele>
        <time>2007-04-07T16:46:09Z</time>
      </trkpt>
      <trkpt lat="45.3163" lon="4.46563">
        <ele>1156</ele>
        <time>2007-04-07T16:46:19Z</time>
      </trkpt>
      <trkpt lat="45.31555" lon="4.4651">
        <ele>1150</ele>
        <time>2007-04-07T16:46:35Z</time>
      </trkpt>
      <trkpt lat="45.31528" lon="4.46452">
        <ele>1148</ele>
        <time>2007-04-07T16:46:44Z</time>
      </trkpt>
      <trkpt lat="45.31485" lon="4.46408">
        <ele>1146</ele>
        <time>2007-04-07T16:46:54Z</time>
      </trkpt>
      <trkpt lat="45.31452" lon="4.46363">
        <ele>1147</ele>
        <time>2007-04-07T16:47:02Z</time>
      </trkpt>
      <trkpt lat="45.31435" lon="4.46308">
        <ele>1148</ele>
        <time>2007-04-07T16:47:10Z</time>
      </trkpt>
      <trkpt lat="45.3142" lon="4.46267">
        <ele>1148</ele>
        <time>2007-04-07T16:47:18Z</time>
      </trkpt>
      <trkpt lat="45.3142" lon="4.46232">
        <ele>1149</ele>
        <time>2007-04-07T16:47:25Z</time>
      </trkpt>
      <trkpt lat="45.31418" lon="4.46183">
        <ele>1148</ele>
        <time>2007-04-07T16:47:36Z</time>
      </trkpt>
      <trkpt lat="45.31413" lon="4.46123">
        <ele>1147</ele>
        <time>2007-04-07T16:47:49Z</time>
      </trkpt>
      <trkpt lat="45.31407" lon="4.46052">
        <ele>1150</ele>
        <time>2007-04-07T16:48:09Z</time>
      </trkpt>
      <trkpt lat="45.31422" lon="4.45967">
        <ele>1148</ele>
        <time>2007-04-07T16:48:31Z</time>
      </trkpt>
      <trkpt lat="45.3143" lon="4.45927">
        <ele>1148</ele>
        <time>2007-04-07T16:48:43Z</time>
      </trkpt>
      <trkpt lat="45.31427" lon="4.45803">
        <ele>1145</ele>
        <time>2007-04-07T16:49:04Z</time>
      </trkpt>
      <trkpt lat="45.31427" lon="4.4568">
        <ele>1145</ele>
        <time>2007-04-07T16:49:25Z</time>
      </trkpt>
      <trkpt lat="45.3144" lon="4.4564">
        <ele>1138</ele>
        <time>2007-04-07T16:49:33Z</time>
      </trkpt>
      <trkpt lat="45.3145" lon="4.45608">
        <ele>1138</ele>
        <time>2007-04-07T16:49:42Z</time>
      </trkpt>
      <trkpt lat="45.31465" lon="4.4558">
        <ele>1133</ele>
        <time>2007-04-07T16:49:49Z</time>
      </trkpt>
      <trkpt lat="45.31473" lon="4.45547">
        <ele>1129</ele>
        <time>2007-04-07T16:49:55Z</time>
      </trkpt>
      <trkpt lat="45.3149" lon="4.45505">
        <ele>1129</ele>
        <time>2007-04-07T16:50:02Z</time>
      </trkpt>
      <trkpt lat="45.315" lon="4.45472">
        <ele>1131</ele>
        <time>2007-04-07T16:50:10Z</time>
      </trkpt>
      <trkpt lat="45.31543" lon="4.45415">
        <ele>1138</ele>
        <time>2007-04-07T16:50:26Z</time>
      </trkpt>
      <trkpt lat="45.31557" lon="4.4537">
        <ele>1140</ele>
        <time>2007-04-07T16:50:36Z</time>
      </trkpt>
      <trkpt lat="45.3159" lon="4.45328">
        <ele>1140</ele>
        <time>2007-04-07T16:50:46Z</time>
      </trkpt>
      <trkpt lat="45.31603" lon="4.45303">
        <ele>1140</ele>
        <time>2007-04-07T16:50:52Z</time>
      </trkpt>
      <trkpt lat="45.3161" lon="4.45273">
        <ele>1139</ele>
        <time>2007-04-07T16:50:58Z</time>
      </trkpt>
      <trkpt lat="45.31638" lon="4.45217">
        <ele>1138</ele>
        <time>2007-04-07T16:51:10Z</time>
      </trkpt>
      <trkpt lat="45.31657" lon="4.45168">
        <ele>1137</ele>
        <time>2007-04-07T16:51:19Z</time>
      </trkpt>
      <trkpt lat="45.31675" lon="4.45138">
        <ele>1136</ele>
        <time>2007-04-07T16:51:26Z</time>
      </trkpt>
      <trkpt lat="45.31678" lon="4.45112">
        <ele>1137</ele>
        <time>2007-04-07T16:51:33Z</time>
      </trkpt>
      <trkpt lat="45.31685" lon="4.45078">
        <ele>1140</ele>
        <time>2007-04-07T16:51:44Z</time>
      </trkpt>
      <trkpt lat="45.31665" lon="4.45075">
        <ele>1144</ele>
        <time>2007-04-07T16:52:00Z</time>
      </trkpt>
      <trkpt lat="45.31647" lon="4.45093">
        <ele>1151</ele>
        <time>2007-04-07T16:52:22Z</time>
      </trkpt>
      <trkpt lat="45.3162" lon="4.45082">
        <ele>1156</ele>
        <time>2007-04-07T16:53:08Z</time>
      </trkpt>
      <trkpt lat="45.316" lon="4.45068">
        <ele>1157</ele>
        <time>2007-04-07T16:53:31Z</time>
      </trkpt>
      <trkpt lat="45.31577" lon="4.45055">
        <ele>1154</ele>
        <time>2007-04-07T16:53:52Z</time>
      </trkpt>
      <trkpt lat="45.3156" lon="4.45042">
        <ele>1162</ele>
        <time>2007-04-07T16:54:10Z</time>
      </trkpt>
      <trkpt lat="45.3155" lon="4.4502">
        <ele>1170</ele>
        <time>2007-04-07T16:54:30Z</time>
      </trkpt>
      <trkpt lat="45.31523" lon="4.45007">
        <ele>1176</ele>
        <time>2007-04-07T16:54:54Z</time>
      </trkpt>
      <trkpt lat="45.31512" lon="4.44983">
        <ele>1179</ele>
        <time>2007-04-07T16:55:11Z</time>
      </trkpt>
      <trkpt lat="45.31505" lon="4.44963">
        <ele>1182</ele>
        <time>2007-04-07T16:55:30Z</time>
      </trkpt>
      <trkpt lat="45.31488" lon="4.44957">
        <ele>1185</ele>
        <time>2007-04-07T16:55:46Z</time>
      </trkpt>
      <trkpt lat="45.31473" lon="4.44943">
        <ele>1190</ele>
        <time>2007-04-07T16:56:03Z</time>
      </trkpt>
      <trkpt lat="45.31458" lon="4.4492">
        <ele>1198</ele>
        <time>2007-04-07T16:57:07Z</time>
      </trkpt>
      <trkpt lat="45.3144" lon="4.44892">
        <ele>1202</ele>
        <time>2007-04-07T16:57:29Z</time>
      </trkpt>
      <trkpt lat="45.31427" lon="4.44877">
        <ele>1209</ele>
        <time>2007-04-07T16:57:46Z</time>
      </trkpt>
      <trkpt lat="45.31405" lon="4.4486">
        <ele>1207</ele>
        <time>2007-04-07T16:58:32Z</time>
      </trkpt>
      <trkpt lat="45.31388" lon="4.4485">
        <ele>1206</ele>
        <time>2007-04-07T16:58:46Z</time>
      </trkpt>
      <trkpt lat="45.31367" lon="4.44842">
        <ele>1207</ele>
        <time>2007-04-07T16:59:00Z</time>
      </trkpt>
      <trkpt lat="45.31315" lon="4.44822">
        <ele>1207</ele>
        <time>2007-04-07T16:59:29Z</time>
      </trkpt>
      <trkpt lat="45.31282" lon="4.448">
        <ele>1206</ele>
        <time>2007-04-07T16:59:48Z</time>
      </trkpt>
      <trkpt lat="45.31242" lon="4.44787">
        <ele>1202</ele>
        <time>2007-04-07T17:00:03Z</time>
      </trkpt>
      <trkpt lat="45.31185" lon="4.44765">
        <ele>1201</ele>
        <time>2007-04-07T17:00:16Z</time>
      </trkpt>
      <trkpt lat="45.31155" lon="4.44753">
        <ele>1202</ele>
        <time>2007-04-07T17:00:30Z</time>
      </trkpt>
      <trkpt lat="45.31112" lon="4.44728">
        <ele>1205</ele>
        <time>2007-04-07T17:00:51Z</time>
      </trkpt>
      <trkpt lat="45.31077" lon="4.44707">
        <ele>1208</ele>
        <time>2007-04-07T17:01:11Z</time>
      </trkpt>
      <trkpt lat="45.31067" lon="4.44685">
        <ele>1210</ele>
        <time>2007-04-07T17:01:46Z</time>
      </trkpt>
      <trkpt lat="45.31015" lon="4.44678">
        <ele>1213</ele>
        <time>2007-04-07T17:02:29Z</time>
      </trkpt>
      <trkpt lat="45.30875" lon="4.44615">
        <ele>1221</ele>
        <time>2007-04-07T17:03:54Z</time>
      </trkpt>
      <trkpt lat="45.30835" lon="4.44595">
        <ele>1229</ele>
        <time>2007-04-07T17:04:51Z</time>
      </trkpt>
      <trkpt lat="45.3082" lon="4.44587">
        <ele>1232</ele>
        <time>2007-04-07T17:05:11Z</time>
      </trkpt>
      <trkpt lat="45.30725" lon="4.4454">
        <ele>1241</ele>
        <time>2007-04-07T17:06:41Z</time>
      </trkpt>
      <trkpt lat="45.30708" lon="4.44532">
        <ele>1242</ele>
        <time>2007-04-07T17:07:09Z</time>
      </trkpt>
      <trkpt lat="45.30645" lon="4.4449">
        <ele>1241</ele>
        <time>2007-04-07T17:07:56Z</time>
      </trkpt>
      <trkpt lat="45.30627" lon="4.44475">
        <ele>1240</ele>
        <time>2007-04-07T17:08:07Z</time>
      </trkpt>
      <trkpt lat="45.306" lon="4.44445">
        <ele>1237</ele>
        <time>2007-04-07T17:08:37Z</time>
      </trkpt>
      <trkpt lat="45.30555" lon="4.44415">
        <ele>1234</ele>
        <time>2007-04-07T17:08:49Z</time>
      </trkpt>
      <trkpt lat="45.30453" lon="4.44422">
        <ele>1228</ele>
        <time>2007-04-07T17:09:11Z</time>
      </trkpt>
      <trkpt lat="45.30303" lon="4.44318">
        <ele>1216</ele>
        <time>2007-04-07T17:09:31Z</time>
      </trkpt>
      <trkpt lat="45.30245" lon="4.44253">
        <ele>1213</ele>
        <time>2007-04-07T17:09:40Z</time>
      </trkpt>
      <trkpt lat="45.30223" lon="4.44202">
        <ele>1210</ele>
        <time>2007-04-07T17:09:54Z</time>
      </trkpt>
      <trkpt lat="45.30223" lon="4.44108">
        <ele>1202</ele>
        <time>2007-04-07T17:10:11Z</time>
      </trkpt>
      <trkpt lat="45.30233" lon="4.4407">
        <ele>1198</ele>
        <time>2007-04-07T17:10:19Z</time>
      </trkpt>
      <trkpt lat="45.30243" lon="4.4401">
        <ele>1194</ele>
        <time>2007-04-07T17:10:31Z</time>
      </trkpt>
      <trkpt lat="45.30268" lon="4.43992">
        <ele>1191</ele>
        <time>2007-04-07T17:10:48Z</time>
      </trkpt>
      <trkpt lat="45.30267" lon="4.43948">
        <ele>1185</ele>
        <time>2007-04-07T17:10:59Z</time>
      </trkpt>
      <trkpt lat="45.30287" lon="4.43917">
        <ele>1179</ele>
        <time>2007-04-07T17:11:13Z</time>
      </trkpt>
      <trkpt lat="45.30283" lon="4.43878">
        <ele>1172</ele>
        <time>2007-04-07T17:11:25Z</time>
      </trkpt>
      <trkpt lat="45.30313" lon="4.43855">
        <ele>1166</ele>
        <time>2007-04-07T17:11:36Z</time>
      </trkpt>
      <trkpt lat="45.30312" lon="4.43755">
        <ele>1150</ele>
        <time>2007-04-07T17:11:52Z</time>
      </trkpt>
      <trkpt lat="45.30302" lon="4.43705">
        <ele>1145</ele>
        <time>2007-04-07T17:11:58Z</time>
      </trkpt>
      <trkpt lat="45.30305" lon="4.43683">
        <ele>1142</ele>
        <time>2007-04-07T17:12:06Z</time>
      </trkpt>
      <trkpt lat="45.30345" lon="4.43678">
        <ele>1140</ele>
        <time>2007-04-07T17:12:32Z</time>
      </trkpt>
      <trkpt lat="45.30405" lon="4.43685">
        <ele>1139</ele>
        <time>2007-04-07T17:12:58Z</time>
      </trkpt>
      <trkpt lat="45.30442" lon="4.43682">
        <ele>1139</ele>
        <time>2007-04-07T17:13:28Z</time>
      </trkpt>
      <trkpt lat="45.3046" lon="4.43648">
        <ele>1140</ele>
        <time>2007-04-07T17:13:40Z</time>
      </trkpt>
      <trkpt lat="45.30478" lon="4.43637">
        <ele>1140</ele>
        <time>2007-04-07T17:13:51Z</time>
      </trkpt>
      <trkpt lat="45.30503" lon="4.43637">
        <ele>1144</ele>
        <time>2007-04-07T17:14:07Z</time>
      </trkpt>
      <trkpt lat="45.3053" lon="4.43607">
        <ele>1145</ele>
        <time>2007-04-07T17:14:24Z</time>
      </trkpt>
      <trkpt lat="45.30543" lon="4.43577">
        <ele>1146</ele>
        <time>2007-04-07T17:14:35Z</time>
      </trkpt>
      <trkpt lat="45.3057" lon="4.43517">
        <ele>1147</ele>
        <time>2007-04-07T17:15:03Z</time>
      </trkpt>
      <trkpt lat="45.3061" lon="4.43462">
        <ele>1149</ele>
        <time>2007-04-07T17:15:29Z</time>
      </trkpt>
      <trkpt lat="45.30645" lon="4.43465">
        <ele>1149</ele>
        <time>2007-04-07T17:15:47Z</time>
      </trkpt>
      <trkpt lat="45.30913" lon="4.43578">
        <ele>1151</ele>
        <time>2007-04-07T17:17:31Z</time>
      </trkpt>
      <trkpt lat="45.30938" lon="4.43588">
        <ele>1150</ele>
        <time>2007-04-07T17:17:41Z</time>
      </trkpt>
      <trkpt lat="45.30978" lon="4.43613">
        <ele>1147</ele>
        <time>2007-04-07T17:17:53Z</time>
      </trkpt>
      <trkpt lat="45.31243" lon="4.43708">
        <ele>1121</ele>
        <time>2007-04-07T17:18:35Z</time>
      </trkpt>
      <trkpt lat="45.31307" lon="4.43712">
        <ele>1114</ele>
        <time>2007-04-07T17:18:46Z</time>
      </trkpt>
      <trkpt lat="45.31505" lon="4.43727">
        <ele>1114</ele>
        <time>2007-04-07T17:19:13Z</time>
      </trkpt>
      <trkpt lat="45.31533" lon="4.4374">
        <ele>1110</ele>
        <time>2007-04-07T17:19:18Z</time>
      </trkpt>
      <trkpt lat="45.31573" lon="4.43767">
        <ele>1110</ele>
        <time>2007-04-07T17:19:26Z</time>
      </trkpt>
      <trkpt lat="45.31617" lon="4.43745">
        <ele>1106</ele>
        <time>2007-04-07T17:19:43Z</time>
      </trkpt>
      <trkpt lat="45.31632" lon="4.43758">
        <ele>1102</ele>
        <time>2007-04-07T17:19:50Z</time>
      </trkpt>
      <trkpt lat="45.3164" lon="4.43795">
        <ele>1099</ele>
        <time>2007-04-07T17:20:03Z</time>
      </trkpt>
      <trkpt lat="45.3165" lon="4.4382">
        <ele>1100</ele>
        <time>2007-04-07T17:20:12Z</time>
      </trkpt>
      <trkpt lat="45.31678" lon="4.43857">
        <ele>1093</ele>
        <time>2007-04-07T17:20:26Z</time>
      </trkpt>
      <trkpt lat="45.31708" lon="4.439">
        <ele>1094</ele>
        <time>2007-04-07T17:20:38Z</time>
      </trkpt>
      <trkpt lat="45.31762" lon="4.4398">
        <ele>1086</ele>
        <time>2007-04-07T17:21:01Z</time>
      </trkpt>
      <trkpt lat="45.31827" lon="4.44002">
        <ele>1086</ele>
        <time>2007-04-07T17:21:11Z</time>
      </trkpt>
      <trkpt lat="45.31828" lon="4.44042">
        <ele>1086</ele>
        <time>2007-04-07T17:21:17Z</time>
      </trkpt>
      <trkpt lat="45.31875" lon="4.44087">
        <ele>1086</ele>
        <time>2007-04-07T17:21:25Z</time>
      </trkpt>
      <trkpt lat="45.31882" lon="4.44157">
        <ele>1086</ele>
        <time>2007-04-07T17:21:39Z</time>
      </trkpt>
      <trkpt lat="45.31898" lon="4.44188">
        <ele>1086</ele>
        <time>2007-04-07T17:21:45Z</time>
      </trkpt>
      <trkpt lat="45.31917" lon="4.44222">
        <ele>1085</ele>
        <time>2007-04-07T17:21:52Z</time>
      </trkpt>
      <trkpt lat="45.31943" lon="4.44265">
        <ele>1088</ele>
        <time>2007-04-07T17:22:01Z</time>
      </trkpt>
      <trkpt lat="45.3195" lon="4.44308">
        <ele>1083</ele>
        <time>2007-04-07T17:22:15Z</time>
      </trkpt>
      <trkpt lat="45.31952" lon="4.44343">
        <ele>1086</ele>
        <time>2007-04-07T17:22:29Z</time>
      </trkpt>
      <trkpt lat="45.31955" lon="4.44365">
        <ele>1088</ele>
        <time>2007-04-07T17:22:39Z</time>
      </trkpt>
      <trkpt lat="45.31973" lon="4.4442">
        <ele>1084</ele>
        <time>2007-04-07T17:22:58Z</time>
      </trkpt>
      <trkpt lat="45.31982" lon="4.44452">
        <ele>1085</ele>
        <time>2007-04-07T17:23:10Z</time>
      </trkpt>
      <trkpt lat="45.32023" lon="4.44512">
        <ele>1090</ele>
        <time>2007-04-07T17:23:42Z</time>
      </trkpt>
      <trkpt lat="45.32048" lon="4.44528">
        <ele>1090</ele>
        <time>2007-04-07T17:24:02Z</time>
      </trkpt>
      <trkpt lat="45.32082" lon="4.44525">
        <ele>1098</ele>
        <time>2007-04-07T17:24:17Z</time>
      </trkpt>
      <trkpt lat="45.32108" lon="4.44528">
        <ele>1107</ele>
        <time>2007-04-07T17:24:29Z</time>
      </trkpt>
      <trkpt lat="45.32128" lon="4.44545">
        <ele>1115</ele>
        <time>2007-04-07T17:24:42Z</time>
      </trkpt>
      <trkpt lat="45.32148" lon="4.44568">
        <ele>1114</ele>
        <time>2007-04-07T17:24:57Z</time>
      </trkpt>
      <trkpt lat="45.3216" lon="4.44598">
        <ele>1112</ele>
        <time>2007-04-07T17:25:12Z</time>
      </trkpt>
      <trkpt lat="45.32177" lon="4.4463">
        <ele>1107</ele>
        <time>2007-04-07T17:25:27Z</time>
      </trkpt>
      <trkpt lat="45.32185" lon="4.44657">
        <ele>1104</ele>
        <time>2007-04-07T17:25:36Z</time>
      </trkpt>
      <trkpt lat="45.32203" lon="4.44667">
        <ele>1101</ele>
        <time>2007-04-07T17:25:46Z</time>
      </trkpt>
      <trkpt lat="45.32225" lon="4.44675">
        <ele>1099</ele>
        <time>2007-04-07T17:25:57Z</time>
      </trkpt>
      <trkpt lat="45.32242" lon="4.44688">
        <ele>1098</ele>
        <time>2007-04-07T17:26:11Z</time>
      </trkpt>
      <trkpt lat="45.32288" lon="4.4478">
        <ele>1097</ele>
        <time>2007-04-07T17:26:34Z</time>
      </trkpt>
      <trkpt lat="45.32297" lon="4.44812">
        <ele>1096</ele>
        <time>2007-04-07T17:26:41Z</time>
      </trkpt>
      <trkpt lat="45.3229" lon="4.44862">
        <ele>1095</ele>
        <time>2007-04-07T17:26:57Z</time>
      </trkpt>
      <trkpt lat="45.32288" lon="4.44905">
        <ele>1092</ele>
        <time>2007-04-07T17:27:10Z</time>
      </trkpt>
      <trkpt lat="45.32348" lon="4.44923">
        <ele>1082</ele>
        <time>2007-04-07T17:27:29Z</time>
      </trkpt>
      <trkpt lat="45.3238" lon="4.44935">
        <ele>1074</ele>
        <time>2007-04-07T17:27:37Z</time>
      </trkpt>
      <trkpt lat="45.32413" lon="4.44945">
        <ele>1066</ele>
        <time>2007-04-07T17:27:48Z</time>
      </trkpt>
      <trkpt lat="45.3246" lon="4.44922">
        <ele>1061</ele>
        <time>2007-04-07T17:27:59Z</time>
      </trkpt>
      <trkpt lat="45.325" lon="4.44893">
        <ele>1054</ele>
        <time>2007-04-07T17:28:11Z</time>
      </trkpt>
      <trkpt lat="45.32515" lon="4.44873">
        <ele>1051</ele>
        <time>2007-04-07T17:28:19Z</time>
      </trkpt>
      <trkpt lat="45.32703" lon="4.44817">
        <ele>1018</ele>
        <time>2007-04-07T17:28:47Z</time>
      </trkpt>
      <trkpt lat="45.32683" lon="4.44753">
        <ele>1018</ele>
        <time>2007-04-07T17:29:03Z</time>
      </trkpt>
      <trkpt lat="45.3264" lon="4.44695">
        <ele>1019</ele>
        <time>2007-04-07T17:29:18Z</time>
      </trkpt>
      <trkpt lat="45.32597" lon="4.4462">
        <ele>1017</ele>
        <time>2007-04-07T17:29:28Z</time>
      </trkpt>
      <trkpt lat="45.325" lon="4.44327">
        <ele>1022</ele>
        <time>2007-04-07T17:30:30Z</time>
      </trkpt>
      <trkpt lat="45.32505" lon="4.44287">
        <ele>1025</ele>
        <time>2007-04-07T17:30:46Z</time>
      </trkpt>
      <trkpt lat="45.32487" lon="4.44237">
        <ele>1030</ele>
        <time>2007-04-07T17:31:08Z</time>
      </trkpt>
      <trkpt lat="45.32465" lon="4.44223">
        <ele>1033</ele>
        <time>2007-04-07T17:31:21Z</time>
      </trkpt>
      <trkpt lat="45.3244" lon="4.44187">
        <ele>1035</ele>
        <time>2007-04-07T17:31:41Z</time>
      </trkpt>
      <trkpt lat="45.32427" lon="4.44163">
        <ele>1037</ele>
        <time>2007-04-07T17:31:49Z</time>
      </trkpt>
      <trkpt lat="45.32395" lon="4.44093">
        <ele>1035</ele>
        <time>2007-04-07T17:32:09Z</time>
      </trkpt>
      <trkpt lat="45.3235" lon="4.44022">
        <ele>1040</ele>
        <time>2007-04-07T17:32:29Z</time>
      </trkpt>
      <trkpt lat="45.32328" lon="4.43992">
        <ele>1039</ele>
        <time>2007-04-07T17:32:37Z</time>
      </trkpt>
      <trkpt lat="45.32297" lon="4.43935">
        <ele>1044</ele>
        <time>2007-04-07T17:32:55Z</time>
      </trkpt>
      <trkpt lat="45.32285" lon="4.43897">
        <ele>1039</ele>
        <time>2007-04-07T17:33:09Z</time>
      </trkpt>
      <trkpt lat="45.3229" lon="4.43863">
        <ele>1037</ele>
        <time>2007-04-07T17:33:24Z</time>
      </trkpt>
      <trkpt lat="45.3231" lon="4.43845">
        <ele>1031</ele>
        <time>2007-04-07T17:33:37Z</time>
      </trkpt>
      <trkpt lat="45.32318" lon="4.43817">
        <ele>1027</ele>
        <time>2007-04-07T17:33:47Z</time>
      </trkpt>
      <trkpt lat="45.3233" lon="4.4379">
        <ele>1020</ele>
        <time>2007-04-07T17:34:01Z</time>
      </trkpt>
      <trkpt lat="45.32338" lon="4.43768">
        <ele>1023</ele>
        <time>2007-04-07T17:34:07Z</time>
      </trkpt>
      <trkpt lat="45.32337" lon="4.43733">
        <ele>1019</ele>
        <time>2007-04-07T17:34:21Z</time>
      </trkpt>
      <trkpt lat="45.32335" lon="4.43678">
        <ele>1019</ele>
        <time>2007-04-07T17:34:35Z</time>
      </trkpt>
      <trkpt lat="45.32335" lon="4.43642">
        <ele>1018</ele>
        <time>2007-04-07T17:34:43Z</time>
      </trkpt>
      <trkpt lat="45.32328" lon="4.43602">
        <ele>1021</ele>
        <time>2007-04-07T17:34:56Z</time>
      </trkpt>
      <trkpt lat="45.32338" lon="4.43557">
        <ele>1016</ele>
        <time>2007-04-07T17:35:07Z</time>
      </trkpt>
      <trkpt lat="45.32347" lon="4.43518">
        <ele>1019</ele>
        <time>2007-04-07T17:35:17Z</time>
      </trkpt>
      <trkpt lat="45.32353" lon="4.43482">
        <ele>1018</ele>
        <time>2007-04-07T17:35:27Z</time>
      </trkpt>
      <trkpt lat="45.3236" lon="4.43463">
        <ele>1021</ele>
        <time>2007-04-07T17:35:59Z</time>
      </trkpt>
      <trkpt lat="45.3238" lon="4.43428">
        <ele>1024</ele>
        <time>2007-04-07T17:36:18Z</time>
      </trkpt>
      <trkpt lat="45.32437" lon="4.434">
        <ele>1022</ele>
        <time>2007-04-07T17:36:32Z</time>
      </trkpt>
      <trkpt lat="45.32477" lon="4.43417">
        <ele>1022</ele>
        <time>2007-04-07T17:36:44Z</time>
      </trkpt>
      <trkpt lat="45.32532" lon="4.43408">
        <ele>1021</ele>
        <time>2007-04-07T17:36:56Z</time>
      </trkpt>
      <trkpt lat="45.32593" lon="4.43355">
        <ele>1019</ele>
        <time>2007-04-07T17:37:10Z</time>
      </trkpt>
      <trkpt lat="45.32607" lon="4.43307">
        <ele>1017</ele>
        <time>2007-04-07T17:37:18Z</time>
      </trkpt>
      <trkpt lat="45.32617" lon="4.43257">
        <ele>1014</ele>
        <time>2007-04-07T17:37:23Z</time>
      </trkpt>
      <trkpt lat="45.32612" lon="4.43213">
        <ele>1011</ele>
        <time>2007-04-07T17:37:46Z</time>
      </trkpt>
      <trkpt lat="45.32642" lon="4.43077">
        <ele>997</ele>
        <time>2007-04-07T17:38:33Z</time>
      </trkpt>
      <trkpt lat="45.3268" lon="4.4296">
        <ele>992</ele>
        <time>2007-04-07T17:39:01Z</time>
      </trkpt>
      <trkpt lat="45.3272" lon="4.42913">
        <ele>989</ele>
        <time>2007-04-07T17:39:10Z</time>
      </trkpt>
      <trkpt lat="45.3272" lon="4.42913">
        <ele>973</ele>
      </trkpt>
      <trkpt lat="45.32715" lon="4.42849">
        <ele>973</ele>
      </trkpt>
      <trkpt lat="45.32632" lon="4.42759">
        <ele>961</ele>
      </trkpt>
      <trkpt lat="45.32527" lon="4.42699">
        <ele>945</ele>
      </trkpt>
      <trkpt lat="45.32346" lon="4.42549">
        <ele>948</ele>
      </trkpt>
      <trkpt lat="45.32407" lon="4.42394">
        <ele>947</ele>
      </trkpt>
      <trkpt lat="45.32531" lon="4.42369">
        <ele>940</ele>
      </trkpt>
      <trkpt lat="45.32576" lon="4.42394">
        <ele>929</ele>
      </trkpt>
      <trkpt lat="45.32626" lon="4.42379">
        <ele>928</ele>
      </trkpt>
      <trkpt lat="45.32691" lon="4.42424">
        <ele>928</ele>
      </trkpt>
      <trkpt lat="45.32785" lon="4.42414">
        <ele>923</ele>
      </trkpt>
      <trkpt lat="45.32676" lon="4.42371">
        <ele>924</ele>
      </trkpt>
      <trkpt lat="45.32653" lon="4.42332">
        <ele>924</ele>
      </trkpt>
      <trkpt lat="45.32604" lon="4.42315">
        <ele>930</ele>
      </trkpt>
      <trkpt lat="45.32638" lon="4.42141">
        <ele>925</ele>
      </trkpt>
      <trkpt lat="45.32613" lon="4.42053">
        <ele>929</ele>
      </trkpt>
      <trkpt lat="45.32536" lon="4.42068">
        <ele>933</ele>
      </trkpt>
      <trkpt lat="45.3254" lon="4.4198">
        <ele>942</ele>
      </trkpt>
      <trkpt lat="45.32598" lon="4.41914">
        <ele>946</ele>
      </trkpt>
      <trkpt lat="45.3267" lon="4.41873">
        <ele>941</ele>
      </trkpt>
      <trkpt lat="45.32653" lon="4.41776">
        <ele>951</ele>
      </trkpt>
      <trkpt lat="45.3269" lon="4.41714">
        <ele>951</ele>
      </trkpt>
      <trkpt lat="45.32681" lon="4.41648">
        <ele>953</ele>
      </trkpt>
      <trkpt lat="45.32764" lon="4.41504">
        <ele>953</ele>
      </trkpt>
      <trkpt lat="45.32809" lon="4.41321">
        <ele>937</ele>
      </trkpt>
      <trkpt lat="45.32907" lon="4.41206">
        <ele>954</ele>
      </trkpt>
      <trkpt lat="45.32978" lon="4.41141">
        <ele>931</ele>
      </trkpt>
      <trkpt lat="45.32991" lon="4.41072">
        <ele>937</ele>
      </trkpt>
      <trkpt lat="45.32969" lon="4.41017">
        <ele>948</ele>
      </trkpt>
      <trkpt lat="45.33053" lon="4.40957">
        <ele>937</ele>
      </trkpt>
      <trkpt lat="45.33067" lon="4.40712">
        <ele>941</ele>
      </trkpt>
      <trkpt lat="45.33113" lon="4.40568">
        <ele>944</ele>
      </trkpt>
      <trkpt lat="45.33112" lon="4.40365">
        <ele>918</ele>
      </trkpt>
      <trkpt lat="45.33231" lon="4.40646">
        <ele>930</ele>
      </trkpt>
      <trkpt lat="45.33231" lon="4.40723">
        <ele>930</ele>
      </trkpt>
      <trkpt lat="45.33264" lon="4.40772">
        <ele>930</ele>
      </trkpt>
      <trkpt lat="45.33242" lon="4.40957">
        <ele>930</ele>
      </trkpt>
      <trkpt lat="45.33297" lon="4.41019">
        <ele>946</ele>
      </trkpt>
      <trkpt lat="45.3332" lon="4.41098">
        <ele>939</ele>
      </trkpt>
      <trkpt lat="45.33284" lon="4.41116">
        <ele>932</ele>
      </trkpt>
      <trkpt lat="45.33254" lon="4.41073">
        <ele>932</ele>
      </trkpt>
      <trkpt lat="45.33174" lon="4.4112">
        <ele>927</ele>
      </trkpt>
      <trkpt lat="45.33122" lon="4.41191">
        <ele>926</ele>
      </trkpt>
      <trkpt lat="45.33115" lon="4.41294">
        <ele>930</ele>
      </trkpt>
      <trkpt lat="45.33157" lon="4.41401">
        <ele>936</ele>
      </trkpt>
      <trkpt lat="45.33141" lon="4.41455">
        <ele>936</ele>
      </trkpt>
      <trkpt lat="45.33145" lon="4.41525">
        <ele>939</ele>
      </trkpt>
      <trkpt lat="45.33193" lon="4.41566">
        <ele>940</ele>
      </trkpt>
      <trkpt lat="45.33124" lon="4.41643">
        <ele>940</ele>
      </trkpt>
      <trkpt lat="45.33023" lon="4.41699">
        <ele>932</ele>
      </trkpt>
      <trkpt lat="45.32982" lon="4.41811">
        <ele>947</ele>
      </trkpt>
      <trkpt lat="45.32994" lon="4.41862">
        <ele>947</ele>
      </trkpt>
      <trkpt lat="45.3294" lon="4.41912">
        <ele>935</ele>
      </trkpt>
      <trkpt lat="45.32846" lon="4.42055">
        <ele>941</ele>
      </trkpt>
      <trkpt lat="45.32807" lon="4.42163">
        <ele>939</ele>
      </trkpt>
      <trkpt lat="45.32895" lon="4.42199">
        <ele>949</ele>
      </trkpt>
      <trkpt lat="45.32997" lon="4.4221">
        <ele>935</ele>
      </trkpt>
      <trkpt lat="45.33036" lon="4.42216">
        <ele>935</ele>
      </trkpt>
      <trkpt lat="45.33145" lon="4.42161">
        <ele>924</ele>
      </trkpt>
      <trkpt lat="45.33249" lon="4.42103">
        <ele>938</ele>
      </trkpt>
      <trkpt lat="45.3335" lon="4.4215">
        <ele>924</ele>
      </trkpt>
      <trkpt lat="45.33424" lon="4.42234">
        <ele>925</ele>
      </trkpt>
      <trkpt lat="45.33492" lon="4.42156">
        <ele>928</ele>
      </trkpt>
      <trkpt lat="45.33558" lon="4.42012">
        <ele>939</ele>
      </trkpt>
      <trkpt lat="45.33655" lon="4.41952">
        <ele>941</ele>
      </trkpt>
      <trkpt lat="45.33776" lon="4.4194">
        <ele>944</ele>
      </trkpt>
      <trkpt lat="45.33849" lon="4.41912">
        <ele>949</ele>
      </trkpt>
      <trkpt lat="45.33875" lon="4.41794">
        <ele>958</ele>
      </trkpt>
      <trkpt lat="45.33904" lon="4.41738">
        <ele>958</ele>
      </trkpt>
    </trkseg>
  </trk>
</gpx>